Time;durP1;ratioP1;P1;durP2;ratioP2;P2;SDS_P1;SDS_P2;PMS_P1;PMS_P2;Temp;Humidity;BMP_temperature;BMP_pressure;BME280_temperature;BME280_humidity;BME280_pressure;Samples;Min_cycle;Max_cycle;Signal;HPM_P1;HPM_P2
2022/08/07 00:01:27;;;;;;;8.35;4.18;;;27.90;62.10;;;;;;5043569;28;20223;-78
2022/08/07 00:04:15;;;;;;;7.45;4.00;;;27.90;62.20;;;;;;5045401;28;20230;-77
2022/08/07 00:06:51;;;;;;;8.77;4.55;;;27.90;62.10;;;;;;5052937;28;20206;-78
2022/08/07 00:09:20;;;;;;;6.82;4.13;;;27.80;62.10;;;;;;5051467;28;20195;-79
2022/08/07 00:11:51;;;;;;;8.70;4.30;;;27.80;62.20;;;;;;5053136;28;20741;-78
2022/08/07 00:14:23;;;;;;;10.27;4.68;;;27.80;62.30;;;;;;5049208;28;20201;-78
2022/08/07 00:16:54;;;;;;;6.57;3.50;;;27.80;62.50;;;;;;5049180;28;20190;-78
2022/08/07 00:19:23;;;;;;;6.80;4.10;;;27.80;62.50;;;;;;5048996;28;20186;-79
2022/08/07 00:22:01;;;;;;;6.22;3.63;;;27.70;62.50;;;;;;5051808;28;20774;-79
2022/08/07 00:24:30;;;;;;;7.03;4.55;;;27.70;62.70;;;;;;5051510;28;20257;-79
2022/08/07 00:26:59;;;;;;;7.53;4.53;;;27.70;62.70;;;;;;5056978;28;20195;-79
2022/08/07 00:29:36;;;;;;;6.82;3.78;;;27.70;62.70;;;;;;5047205;28;20821;-79
2022/08/07 00:32:08;;;;;;;6.90;4.20;;;27.70;62.80;;;;;;5040552;28;20574;-78
2022/08/07 00:34:40;;;;;;;5.93;4.15;;;27.70;62.90;;;;;;5055163;28;20524;-79
2022/08/07 00:37:09;;;;;;;6.22;3.85;;;27.60;63.00;;;;;;5049243;28;20294;-78
2022/08/07 00:39:40;;;;;;;6.43;3.97;;;27.60;63.00;;;;;;5048310;28;20250;-79
2022/08/07 00:42:12;;;;;;;6.78;4.00;;;27.60;63.00;;;;;;5055052;28;20691;-78
2022/08/07 00:44:41;;;;;;;6.65;4.22;;;27.50;63.00;;;;;;5056437;28;20245;-79
2022/08/07 00:47:11;;;;;;;7.13;4.15;;;27.50;63.20;;;;;;5052618;28;20187;-79
2022/08/07 00:49:59;;;;;;;4.95;3.22;;;27.50;63.20;;;;;;5043950;28;20210;-78
2022/08/07 00:52:48;;;;;;;5.65;3.70;;;27.50;63.10;;;;;;5047041;28;20206;-79
2022/08/07 00:55:20;;;;;;;6.00;3.70;;;27.40;63.10;;;;;;5045043;28;20274;-78
2022/08/07 00:58:08;;;;;;;6.38;4.10;;;27.40;63.20;;;;;;5037995;28;20710;-81
2022/08/07 01:00:37;;;;;;;6.13;3.90;;;27.40;63.30;;;;;;5046458;28;20302;-80
2022/08/07 01:03:22;;;;;;;5.90;3.80;;;27.40;63.30;;;;;;5043368;28;20705;-79
2022/08/07 01:06:11;;;;;;;8.00;4.20;;;27.30;63.30;;;;;;5056739;28;20213;-78
2022/08/07 01:08:42;;;;;;;7.32;4.50;;;27.30;63.30;;;;;;5047683;28;20206;-78
2022/08/07 01:11:20;;;;;;;8.30;4.10;;;27.30;63.50;;;;;;5062138;28;20195;-79
2022/08/07 01:14:09;;;;;;;6.07;3.90;;;27.30;63.40;;;;;;5038416;28;20226;-79
2022/08/07 01:16:38;;;;;;;10.40;4.00;;;27.20;63.30;;;;;;5045633;28;20217;-77
2022/08/07 01:19:12;;;;;;;7.07;4.20;;;27.20;63.40;;;;;;5047023;28;20285;-78
2022/08/07 01:21:51;;;;;;;6.90;3.95;;;27.20;63.50;;;;;;5042186;28;20195;-77
2022/08/07 01:24:23;;;;;;;6.72;3.83;;;27.10;63.60;;;;;;5049946;28;20225;-78
2022/08/07 01:26:52;;;;;;;7.75;4.15;;;27.10;63.70;;;;;;5054496;28;20187;-78
2022/08/07 01:29:23;;;;;;;7.07;4.43;;;27.10;63.70;;;;;;5044875;28;20195;-78
2022/08/07 01:31:55;;;;;;;6.38;4.03;;;27.10;63.80;;;;;;5032792;28;20306;-79
2022/08/07 01:34:30;;;;;;;7.75;3.90;;;27.10;63.80;;;;;;5036940;28;20183;-78
2022/08/07 01:37:01;;;;;;;7.63;4.28;;;27.10;63.90;;;;;;5045915;28;20207;-79
2022/08/07 01:39:31;;;;;;;8.00;4.80;;;27.10;64.00;;;;;;5051506;28;20230;-79
2022/08/07 01:42:14;;;;;;;5.80;3.88;;;27.00;63.90;;;;;;5043539;28;20229;-79
2022/08/07 01:45:04;;;;;;;7.10;4.10;;;27.00;64.00;;;;;;5054322;28;20322;-80
2022/08/07 01:47:43;;;;;;;7.03;4.05;;;27.00;64.10;;;;;;5045241;28;20184;-79
2022/08/07 01:50:33;;;;;;;7.22;4.60;;;27.00;64.20;;;;;;5051296;28;20238;-80
2022/08/07 01:53:03;;;;;;;5.72;3.53;;;26.90;64.10;;;;;;5043896;28;20222;-78
2022/08/07 01:55:42;;;;;;;6.15;4.20;;;26.90;64.30;;;;;;5050593;28;20212;-80
2022/08/07 01:58:13;;;;;;;7.90;4.70;;;26.90;64.40;;;;;;5049974;28;20191;-79
2022/08/07 02:01:02;;;;;;;6.95;4.32;;;26.80;65.30;;;;;;5053831;28;20640;-80
2022/08/07 02:03:57;;;;;;;6.35;4.35;;;26.80;64.50;;;;;;5040914;28;20245;-79
2022/08/07 02:06:29;;;;;;;7.47;4.50;;;26.80;64.70;;;;;;5043312;28;20223;-78
2022/08/07 02:09:04;;;;;;;6.00;4.05;;;26.80;64.70;;;;;;5052585;28;20216;-79
2022/08/07 02:11:38;;;;;;;7.60;4.70;;;26.70;64.80;;;;;;5050160;28;20183;-79
2022/08/07 02:14:27;;;;;;;8.45;4.30;;;26.70;64.80;;;;;;5047728;28;20209;-79
2022/08/07 02:17:10;;;;;;;6.97;4.78;;;26.70;64.90;;;;;;5042795;28;20193;-79
2022/08/07 02:19:41;;;;;;;7.93;4.57;;;26.70;65.00;;;;;;5055247;28;20191;-79
2022/08/07 02:22:32;;;;;;;7.78;4.63;;;26.70;65.10;;;;;;5052051;28;20202;-81
2022/08/07 02:25:05;;;;;;;7.82;4.47;;;26.60;65.00;;;;;;5056781;28;20244;-79
2022/08/07 02:27:42;;;;;;;6.88;4.38;;;26.60;65.20;;;;;;5045999;28;20537;-79
2022/08/07 02:30:19;;;;;;;8.32;4.50;;;26.60;65.20;;;;;;5048750;28;20277;-79
2022/08/07 02:32:49;;;;;;;8.50;4.90;;;26.60;65.20;;;;;;5054592;28;20198;-79
2022/08/07 02:35:38;;;;;;;6.32;3.97;;;26.60;65.30;;;;;;5045886;28;20201;-79
2022/08/07 02:38:29;;;;;;;7.30;4.75;;;26.60;65.40;;;;;;5049281;28;20252;-78
2022/08/07 02:41:01;;;;;;;8.15;4.57;;;26.50;65.50;;;;;;5058423;28;20194;-79
2022/08/07 02:43:33;;;;;;;7.57;4.65;;;26.50;65.60;;;;;;5050677;28;20226;-79
2022/08/07 02:46:06;;;;;;;11.02;4.93;;;26.50;65.60;;;;;;5049675;28;20228;-79
2022/08/07 02:48:34;;;;;;;8.77;5.00;;;26.40;65.70;;;;;;5052968;28;20621;-79
2022/08/07 02:51:07;;;;;;;8.05;4.53;;;26.40;65.70;;;;;;5039806;28;20195;-79
2022/08/07 02:53:57;;;;;;;10.00;5.60;;;26.40;65.80;;;;;;5047181;28;20198;-79
2022/08/07 02:56:30;;;;;;;7.93;5.25;;;26.40;65.90;;;;;;5048030;28;20187;-79
2022/08/07 02:59:02;;;;;;;9.57;5.70;;;26.40;66.00;;;;;;5046896;28;20736;-79
2022/08/07 03:01:33;;;;;;;10.60;5.50;;;26.40;66.10;;;;;;5051566;28;20650;-79
2022/08/07 03:04:06;;;;;;;9.07;5.20;;;26.40;66.10;;;;;;5049323;28;20188;-78
2022/08/07 03:06:41;;;;;;;7.88;4.63;;;26.40;66.20;;;;;;5043917;28;20480;-78
2022/08/07 03:09:14;;;;;;;8.55;5.18;;;26.30;66.20;;;;;;5049410;28;20218;-79
2022/08/07 03:12:05;;;;;;;8.02;4.82;;;26.30;66.20;;;;;;5048936;28;20202;-79
2022/08/07 03:14:36;;;;;;;8.95;5.22;;;26.30;66.30;;;;;;5041637;28;20187;-79
2022/08/07 03:17:07;;;;;;;10.20;5.05;;;26.30;66.40;;;;;;5043166;28;20183;-79
2022/08/07 03:19:36;;;;;;;7.07;4.70;;;26.30;66.40;;;;;;5043210;28;20199;-79
2022/08/07 03:22:07;;;;;;;8.45;4.90;;;26.20;66.50;;;;;;5039676;28;20195;-79
2022/08/07 03:24:46;;;;;;;8.38;5.22;;;26.20;66.50;;;;;;5050185;28;20199;-79
2022/08/07 03:27:17;;;;;;;9.05;5.07;;;26.20;66.40;;;;;;5053576;28;20317;-79
2022/08/07 03:29:57;;;;;;;11.65;4.63;;;26.20;66.50;;;;;;5054141;28;20729;-79
2022/08/07 03:32:33;;;;;;;9.18;5.40;;;26.20;66.60;;;;;;5047317;28;20191;-79
2022/08/07 03:35:06;;;;;;;7.25;4.35;;;26.20;66.60;;;;;;5056300;28;20179;-80
2022/08/07 03:37:50;;;;;;;8.10;5.07;;;26.20;66.70;;;;;;5047224;28;20203;-78
2022/08/07 03:40:23;;;;;;;7.63;4.90;;;26.20;66.70;;;;;;5049675;28;20642;-80
2022/08/07 03:43:05;;;;;;;7.07;4.90;;;26.10;66.70;;;;;;5047389;28;20795;-80
2022/08/07 03:45:42;;;;;;;10.65;4.82;;;26.10;66.80;;;;;;5047680;28;20318;-79
2022/08/07 03:48:15;;;;;;;11.10;5.63;;;26.10;66.90;;;;;;5042654;28;20441;-79
2022/08/07 03:50:45;;;;;;;11.18;5.35;;;26.10;66.90;;;;;;5048424;28;20201;-79
2022/08/07 03:53:26;;;;;;;6.55;4.72;;;26.10;67.00;;;;;;5047904;28;20267;-79
2022/08/07 03:56:19;;;;;;;8.75;5.15;;;26.10;67.00;;;;;;5047171;28;20198;-79
2022/08/07 03:59:05;;;;;;;8.02;4.72;;;26.20;67.20;;;;;;5052890;28;20195;-79
2022/08/07 04:01:42;;;;;;;8.02;5.10;;;26.10;67.20;;;;;;5050323;28;20734;-79
2022/08/07 04:04:15;;;;;;;6.82;4.70;;;26.10;67.20;;;;;;5054022;28;20202;-80
2022/08/07 04:06:45;;;;;;;9.65;4.82;;;26.10;67.10;;;;;;5051378;28;20245;-79
2022/08/07 04:09:19;;;;;;;8.65;4.70;;;26.20;68.10;;;;;;5046951;28;20186;-80
2022/08/07 04:11:51;;;;;;;7.38;4.57;;;26.20;67.30;;;;;;5046811;28;20940;-79
2022/08/07 04:14:42;;;;;;;11.05;5.28;;;26.20;67.30;;;;;;5053289;28;20198;-79
2022/08/07 04:17:16;;;;;;;8.85;4.50;;;26.20;67.30;;;;;;5046591;28;20284;-79
2022/08/07 04:19:49;;;;;;;8.35;5.18;;;26.20;67.50;;;;;;5048792;28;20225;-80
2022/08/07 04:22:23;;;;;;;8.57;5.57;;;26.20;67.50;;;;;;5049476;28;20183;-80
2022/08/07 04:24:57;;;;;;;8.20;4.90;;;26.20;67.50;;;;;;5049795;28;20186;-80
2022/08/07 04:27:29;;;;;;;9.32;5.38;;;26.20;67.50;;;;;;5051954;28;20254;-80
2022/08/07 04:30:05;;;;;;;9.15;5.60;;;26.20;67.50;;;;;;5050203;28;20191;-79
2022/08/07 04:32:49;;;;;;;9.05;5.35;;;26.30;67.70;;;;;;5051442;28;20194;-79
2022/08/07 04:35:26;;;;;;;10.18;5.28;;;26.30;67.80;;;;;;5053195;28;20179;-79
2022/08/07 04:38:06;;;;;;;10.45;5.75;;;26.30;67.70;;;;;;5048914;28;20193;-79
2022/08/07 04:40:35;;;;;;;13.55;5.95;;;26.30;67.70;;;;;;5048855;28;20219;-80
2022/08/07 04:43:21;;;;;;;9.50;5.45;;;26.40;67.80;;;;;;5041081;28;21856;-81
2022/08/07 04:46:16;;;;;;;8.65;5.25;;;26.40;67.90;;;;;;5049228;28;20456;-78
2022/08/07 04:49:05;;;;;;;10.05;5.43;;;26.40;67.90;;;;;;5050805;28;20207;-78
2022/08/07 04:51:53;;;;;;;8.52;4.85;;;26.40;67.90;;;;;;5046574;28;20191;-77
2022/08/07 04:54:30;;;;;;;10.57;5.28;;;26.50;68.30;;;;;;5042633;28;20281;-78
2022/08/07 04:57:06;;;;;;;11.27;5.43;;;26.50;68.00;;;;;;5044515;28;20202;-79
2022/08/07 05:00:01;;;;;;;7.72;5.00;;;26.60;68.10;;;;;;5040373;28;20195;-78
2022/08/07 05:02:48;;;;;;;7.30;5.00;;;26.60;68.10;;;;;;5044268;28;20199;-78
2022/08/07 05:05:22;;;;;;;7.72;4.70;;;26.60;68.10;;;;;;5040743;28;20209;-77
2022/08/07 05:08:20;;;;;;;10.18;5.13;;;26.70;68.20;;;;;;5042099;28;20218;-78
2022/08/07 05:11:13;;;;;;;10.52;5.78;;;26.70;68.20;;;;;;5033385;28;20190;-78
2022/08/07 05:13:54;;;;;;;11.00;5.43;;;26.80;68.30;;;;;;5045285;28;20206;-78
2022/08/07 05:16:46;;;;;;;8.55;5.30;;;26.80;68.20;;;;;;5042754;28;20194;-79
2022/08/07 05:19:24;;;;;;;9.07;5.38;;;26.90;68.30;;;;;;5042296;28;20187;-78
2022/08/07 05:22:14;;;;;;;7.30;5.07;;;27.00;68.30;;;;;;5046127;28;20211;-78
2022/08/07 05:24:56;;;;;;;7.88;5.10;;;27.00;68.30;;;;;;5051143;28;20194;-78
2022/08/07 05:27:28;;;;;;;10.70;4.65;;;27.10;68.30;;;;;;5060957;28;20301;-79
2022/08/07 05:30:17;;;;;;;8.38;4.95;;;27.10;68.20;;;;;;5055946;28;20198;-78
2022/08/07 05:33:01;;;;;;;9.38;5.47;;;27.20;68.10;;;;;;5048436;28;20194;-78
2022/08/07 05:35:35;;;;;;;8.35;5.40;;;27.30;68.00;;;;;;5047127;28;20245;-80
2022/08/07 05:38:11;;;;;;;7.00;4.70;;;27.30;67.90;;;;;;5054998;28;20273;-79
2022/08/07 05:41:01;;;;;;;11.55;5.38;;;27.40;68.30;;;;;;5047161;28;20248;-79
2022/08/07 05:43:40;;;;;;;8.57;5.18;;;27.50;68.00;;;;;;5054554;28;20186;-77
2022/08/07 05:46:30;;;;;;;9.68;5.20;;;27.60;68.00;;;;;;5052961;28;20566;-78
2022/08/07 05:49:00;;;;;;;6.72;4.57;;;27.70;67.80;;;;;;5052210;28;20888;-80
2022/08/07 05:51:42;;;;;;;8.98;4.82;;;27.70;67.40;;;;;;5050097;28;20286;-78
2022/08/07 05:54:14;;;;;;;8.10;4.65;;;27.90;67.40;;;;;;5054811;28;20194;-79
2022/08/07 05:56:59;;;;;;;7.53;4.95;;;27.90;67.00;;;;;;5048801;28;20195;-77
2022/08/07 05:59:28;;;;;;;7.10;5.35;;;28.00;66.40;;;;;;5055590;28;20190;-78
2022/08/07 06:02:19;;;;;;;9.35;5.25;;;28.10;66.00;;;;;;5057967;28;20257;-76
2022/08/07 06:05:00;;;;;;;8.30;4.78;;;28.10;66.00;;;;;;5049508;28;20222;-79
2022/08/07 06:07:33;;;;;;;9.95;5.22;;;28.30;66.10;;;;;;5050881;28;20309;-83
2022/08/07 06:10:22;;;;;;;8.73;5.25;;;28.40;65.80;;;;;;5050182;28;20553;-81
2022/08/07 06:12:50;;;;;;;10.07;4.63;;;28.50;65.70;;;;;;5049278;28;20197;-83
2022/08/07 06:15:22;;;;;;;9.32;4.93;;;28.50;65.20;;;;;;5046598;28;20197;-79
2022/08/07 06:18:14;;;;;;;8.77;5.00;;;28.60;64.00;;;;;;5042881;28;20286;-86
2022/08/07 06:20:44;;;;;;;6.47;4.70;;;28.70;63.80;;;;;;5046436;28;20179;-79
2022/08/07 06:23:34;;;;;;;7.85;4.70;;;28.70;64.00;;;;;;5048716;28;20221;-79
2022/08/07 06:26:23;;;;;;;7.57;5.10;;;28.90;64.20;;;;;;5049733;28;20194;-80
2022/08/07 06:28:58;;;;;;;10.52;5.05;;;29.00;63.80;;;;;;5046374;28;20373;-81
2022/08/07 06:31:28;;;;;;;8.88;4.72;;;29.10;63.80;;;;;;5046376;28;20202;-77
2022/08/07 06:34:17;;;;;;;5.60;4.22;;;29.20;63.60;;;;;;5044416;28;20195;-80
2022/08/07 06:36:48;;;;;;;8.77;4.70;;;29.20;62.70;;;;;;5044868;28;20191;-79
2022/08/07 06:39:21;;;;;;;7.32;4.65;;;29.30;62.40;;;;;;5046125;28;20321;-81
2022/08/07 06:42:16;;;;;;;6.90;5.32;;;29.40;62.40;;;;;;5042571;28;20697;-80
2022/08/07 06:44:46;;;;;;;8.77;4.63;;;29.50;61.80;;;;;;5046012;28;20191;-82
2022/08/07 06:47:19;;;;;;;11.52;5.25;;;29.50;61.60;;;;;;5045497;28;20215;-77
2022/08/07 06:49:54;;;;;;;7.35;4.93;;;29.50;60.60;;;;;;5046401;28;20210;-78
2022/08/07 06:52:30;;;;;;;9.75;4.85;;;29.60;60.80;;;;;;5044814;28;20225;-77
2022/08/07 06:55:09;;;;;;;5.97;4.28;;;29.70;61.10;;;;;;5039682;28;20611;-78
2022/08/07 06:58:00;;;;;;;9.05;4.72;;;29.80;61.00;;;;;;5046704;28;20191;-78
2022/08/07 07:00:32;;;;;;;8.10;4.90;;;29.80;61.00;;;;;;5045981;28;20841;-76
2022/08/07 07:03:01;;;;;;;7.38;5.00;;;29.90;60.80;;;;;;5046292;28;20699;-79
2022/08/07 07:05:38;;;;;;;6.43;4.72;;;30.00;61.30;;;;;;5045620;28;20249;-80
2022/08/07 07:08:27;;;;;;;8.90;4.70;;;30.00;60.90;;;;;;5043414;28;20222;-77
2022/08/07 07:11:02;;;;;;;8.40;4.97;;;30.00;60.80;;;;;;5047149;28;20205;-79
2022/08/07 07:13:54;;;;;;;7.28;5.00;;;30.20;61.00;;;;;;5046235;28;20203;-77
2022/08/07 07:16:36;;;;;;;6.10;4.53;;;30.30;61.00;;;;;;5046617;28;20248;-74
2022/08/07 07:19:20;;;;;;;6.10;4.75;;;30.30;60.50;;;;;;5039567;28;20253;-75
2022/08/07 07:22:10;;;;;;;7.15;4.95;;;30.40;60.80;;;;;;5048935;28;20194;-77
2022/08/07 07:24:59;;;;;;;6.53;4.80;;;30.40;60.60;;;;;;5052653;28;20499;-76
2022/08/07 07:27:54;;;;;;;6.50;4.70;;;30.50;60.70;;;;;;5040777;28;20223;-75
2022/08/07 07:30:35;;;;;;;8.35;5.38;;;30.60;60.30;;;;;;5046547;28;20194;-77
2022/08/07 07:33:10;;;;;;;7.70;5.07;;;30.60;60.00;;;;;;5046755;28;20199;-77
2022/08/07 07:35:44;;;;;;;7.68;4.70;;;30.70;60.60;;;;;;5041769;28;21817;-78
2022/08/07 07:38:33;;;;;;;7.15;5.07;;;30.70;59.80;;;;;;5043338;28;20256;-75
2022/08/07 07:41:06;;;;;;;9.10;4.80;;;30.80;59.70;;;;;;5048018;28;20236;-75
2022/08/07 07:43:40;;;;;;;10.25;5.10;;;30.80;59.30;;;;;;5047575;28;20225;-79
2022/08/07 07:46:31;;;;;;;6.95;4.50;;;30.80;59.20;;;;;;5007695;28;20799;-77
2022/08/07 07:49:22;;;;;;;5.90;4.47;;;30.90;59.20;;;;;;5044439;28;20307;-76
2022/08/07 07:52:13;;;;;;;8.80;5.22;;;31.00;59.20;;;;;;5045932;28;21215;-77
2022/08/07 07:54:45;;;;;;;7.43;4.80;;;31.10;59.10;;;;;;5050518;28;20195;-74
2022/08/07 07:57:22;;;;;;;6.85;4.50;;;31.10;58.60;;;;;;5052429;28;20210;-77
2022/08/07 08:00:14;;;;;;;5.10;3.88;;;31.20;58.80;;;;;;5044770;28;20199;-79
2022/08/07 08:03:02;;;;;;;9.57;4.72;;;31.20;58.20;;;;;;5054921;28;20198;-75
2022/08/07 08:05:39;;;;;;;9.82;4.30;;;31.20;57.90;;;;;;5050514;28;20186;-76
2022/08/07 08:08:24;;;;;;;7.50;4.65;;;31.30;58.00;;;;;;5042749;28;20692;-76
2022/08/07 08:11:06;;;;;;;8.98;5.00;;;31.20;58.10;;;;;;5050764;28;20294;-77
2022/08/07 08:13:39;;;;;;;8.00;4.35;;;31.30;58.00;;;;;;5051004;28;20194;-79
2022/08/07 08:16:32;;;;;;;11.35;4.90;;;31.30;58.00;;;;;;5049487;28;20672;-76
2022/08/07 08:19:29;;;;;;;7.85;5.18;;;31.30;57.90;;;;;;5052628;28;20801;-76
2022/08/07 08:28:21;;;;;;;11.07;5.40;;;31.50;57.50;;;;;;5051140;28;20568;-76
2022/08/07 08:31:08;;;;;;;7.75;4.63;;;31.50;56.70;;;;;;5047344;28;20287;-75
2022/08/07 08:33:54;;;;;;;7.03;4.25;;;31.50;56.90;;;;;;5046938;28;20203;-76
2022/08/07 08:36:29;;;;;;;7.88;4.50;;;31.60;56.70;;;;;;5049758;28;20183;-74
2022/08/07 08:39:00;;;;;;;8.35;4.82;;;31.60;56.20;;;;;;5050741;28;20302;-76
2022/08/07 08:41:37;;;;;;;13.57;4.63;;;31.60;56.40;;;;;;5042624;28;20195;-76
2022/08/07 08:44:32;;;;;;;7.88;4.85;;;31.70;56.80;;;;;;5045845;28;20187;-77
2022/08/07 08:47:09;;;;;;;7.55;4.78;;;31.70;56.70;;;;;;5042580;28;20352;-80
2022/08/07 08:49:49;;;;;;;7.25;4.20;;;31.80;56.70;;;;;;5044481;28;20215;-77
2022/08/07 08:52:36;;;;;;;10.82;5.10;;;31.80;56.80;;;;;;5042090;28;20207;-76
2022/08/07 08:55:22;;;;;;;6.10;4.82;;;31.90;56.30;;;;;;5049282;28;21156;-77
2022/08/07 08:58:17;;;;;;;9.57;5.28;;;31.90;56.90;;;;;;5048799;28;20201;-78
2022/08/07 09:00:59;;;;;;;5.90;4.20;;;32.00;56.60;;;;;;5046231;28;20719;-75
2022/08/07 09:03:33;;;;;;;6.53;4.40;;;32.00;56.60;;;;;;5037159;28;20194;-76
2022/08/07 09:06:29;;;;;;;9.32;5.10;;;32.10;55.70;;;;;;5043588;28;20195;-80
2022/08/07 09:09:04;;;;;;;8.90;4.60;;;32.10;55.80;;;;;;5046831;28;20963;-75
2022/08/07 09:11:55;;;;;;;5.80;4.55;;;32.20;55.80;;;;;;5046010;28;20282;-74
2022/08/07 09:14:55;;;;;;;11.85;4.70;;;32.20;55.80;;;;;;5042237;28;20234;-75
2022/08/07 09:17:46;;;;;;;9.32;5.13;;;32.20;56.00;;;;;;5044734;28;20644;-76
2022/08/07 09:20:48;;;;;;;10.57;4.35;;;32.30;55.80;;;;;;5045193;28;20285;-76
2022/08/07 09:23:39;;;;;;;6.28;4.88;;;32.30;55.70;;;;;;5043357;28;20187;-76
2022/08/07 09:26:38;;;;;;;9.40;5.18;;;32.30;55.40;;;;;;5042072;28;20194;-75
2022/08/07 09:29:24;;;;;;;7.97;4.82;;;32.40;55.30;;;;;;5043626;28;20253;-79
2022/08/07 09:32:23;;;;;;;6.53;4.55;;;32.40;55.50;;;;;;5044443;28;20187;-77
2022/08/07 09:35:06;;;;;;;8.73;4.75;;;32.50;55.60;;;;;;5044971;28;20199;-79
2022/08/07 09:38:10;;;;;;;8.27;4.78;;;32.50;55.30;;;;;;5045827;28;20198;-76
2022/08/07 09:41:03;;;;;;;7.45;5.20;;;32.50;55.20;;;;;;5045767;28;20215;-75
2022/08/07 09:43:45;;;;;;;7.40;5.00;;;32.60;55.30;;;;;;5040576;28;20191;-75
2022/08/07 09:46:45;;;;;;;7.78;4.80;;;32.60;55.00;;;;;;5042723;28;20199;-76
2022/08/07 09:49:56;;;;;;;7.70;4.60;;;32.60;55.00;;;;;;5041515;28;20787;-73
2022/08/07 09:52:52;;;;;;;7.63;5.13;;;32.60;54.40;;;;;;5042074;28;20203;-78
2022/08/07 09:55:30;;;;;;;7.32;4.88;;;32.70;54.20;;;;;;5052949;28;20238;-77
2022/08/07 09:59:00;;;;;;;7.10;5.25;;;32.70;54.40;;;;;;5042476;28;20195;-74
2022/08/07 10:01:53;;;;;;;7.85;4.60;;;32.80;54.50;;;;;;5047342;28;20813;-75
2022/08/07 10:05:02;;;;;;;8.63;5.43;;;32.90;54.10;;;;;;5037581;28;20182;-78
2022/08/07 10:07:59;;;;;;;8.27;4.93;;;33.00;54.20;;;;;;4977051;28;20204;-75
2022/08/07 10:10:43;;;;;;;6.75;5.22;;;33.10;54.20;;;;;;5035942;28;20210;-77
2022/08/07 10:13:50;;;;;;;11.80;4.93;;;33.10;54.10;;;;;;5043235;28;20230;-76
2022/08/07 10:16:48;;;;;;;7.30;4.78;;;33.20;53.60;;;;;;5043125;28;20217;-77
2022/08/07 10:19:53;;;;;;;7.50;4.68;;;33.10;52.00;;;;;;5043326;28;20183;-74
2022/08/07 10:22:57;;;;;;;10.00;5.32;;;33.20;52.70;;;;;;5027096;28;20202;-76
2022/08/07 10:25:38;;;;;;;9.73;5.38;;;33.30;52.40;;;;;;4971755;28;20210;-74
2022/08/07 10:28:38;;;;;;;7.43;5.03;;;33.30;52.60;;;;;;5050002;28;20293;-75
2022/08/07 10:31:27;;;;;;;6.80;4.82;;;33.40;52.90;;;;;;5054642;28;20202;-75
2022/08/07 10:34:21;;;;;;;7.43;4.90;;;33.50;53.10;;;;;;5049627;28;20198;-75
2022/08/07 10:37:10;;;;;;;10.93;6.03;;;33.50;53.20;;;;;;5047133;28;20229;-74
2022/08/07 10:39:51;;;;;;;8.75;5.68;;;33.50;51.70;;;;;;5043049;28;20223;-77
2022/08/07 10:42:38;;;;;;;6.85;5.25;;;33.60;52.40;;;;;;5045010;28;20199;-76
2022/08/07 10:45:17;;;;;;;7.45;5.28;;;33.60;52.50;;;;;;5047741;28;20190;-75
2022/08/07 10:48:02;;;;;;;6.85;4.50;;;33.60;52.40;;;;;;5050718;28;20195;-75
2022/08/07 10:50:41;;;;;;;8.70;4.72;;;33.60;52.30;;;;;;5049404;28;20218;-76
2022/08/07 10:53:26;;;;;;;8.05;5.28;;;33.80;52.30;;;;;;5043138;28;20660;-75
2022/08/07 10:56:04;;;;;;;9.05;5.78;;;33.80;52.30;;;;;;5045349;28;20203;-75
2022/08/07 10:58:53;;;;;;;7.63;5.03;;;33.90;52.20;;;;;;5045549;28;20191;-75
2022/08/07 11:01:38;;;;;;;11.02;5.35;;;34.00;52.10;;;;;;5043831;28;20187;-78
2022/08/07 11:04:38;;;;;;;7.85;4.63;;;34.00;51.90;;;;;;5044743;28;20846;-76
2022/08/07 11:07:26;;;;;;;9.00;4.97;;;34.00;51.30;;;;;;5050814;28;20226;-74
2022/08/07 11:10:24;;;;;;;6.82;4.82;;;34.10;50.50;;;;;;5044740;28;20231;-77
2022/08/07 11:13:02;;;;;;;6.10;4.60;;;34.10;50.70;;;;;;5043182;28;20201;-75
2022/08/07 11:15:35;;;;;;;7.35;4.80;;;34.10;50.30;;;;;;5050226;28;20186;-77
2022/08/07 11:18:10;;;;;;;8.50;4.32;;;34.10;49.90;;;;;;5041909;28;20234;-75
2022/08/07 11:20:48;;;;;;;5.43;4.05;;;34.10;49.40;;;;;;5046597;28;20195;-77
2022/08/07 11:23:25;;;;;;;4.95;3.75;;;34.20;49.90;;;;;;5048318;28;21320;-78
2022/08/07 11:26:13;;;;;;;7.72;4.00;;;34.20;50.00;;;;;;5053147;28;20194;-78
2022/08/07 11:28:49;;;;;;;10.20;4.35;;;34.30;50.00;;;;;;5045888;28;20186;-78
2022/08/07 11:31:29;;;;;;;5.68;4.22;;;34.30;48.90;;;;;;5047924;28;20677;-77
2022/08/07 11:34:16;;;;;;;6.68;4.68;;;34.20;48.60;;;;;;5045431;28;20198;-76
2022/08/07 11:36:56;;;;;;;6.60;5.00;;;34.30;48.90;;;;;;5042111;28;20423;-76
2022/08/07 11:39:46;;;;;;;7.05;4.40;;;34.30;48.90;;;;;;5044438;28;20262;-76
2022/08/07 11:42:42;;;;;;;6.15;4.30;;;34.30;49.10;;;;;;5044404;28;20190;-78
2022/08/07 11:45:22;;;;;;;5.18;3.63;;;34.30;48.50;;;;;;5041231;28;20712;-77
2022/08/07 11:48:25;;;;;;;5.68;4.10;;;34.40;48.60;;;;;;5042505;28;20279;-76
2022/08/07 11:51:13;;;;;;;8.02;3.75;;;34.40;48.40;;;;;;5046834;28;20278;-78
2022/08/07 11:54:28;;;;;;;5.85;3.50;;;34.40;48.60;;;;;;5040293;28;20203;-77
2022/08/07 11:57:12;;;;;;;5.03;4.13;;;34.40;47.70;;;;;;5046897;28;21455;-77
2022/08/07 12:00:07;;;;;;;6.82;3.75;;;34.50;47.70;;;;;;5042793;28;20191;-78
2022/08/07 12:03:24;;;;;;;8.68;3.70;;;34.50;47.90;;;;;;5047626;28;20226;-77
2022/08/07 12:06:32;;;;;;;7.35;4.40;;;34.60;48.30;;;;;;5043624;28;20207;-76
2022/08/07 12:09:19;;;;;;;5.10;3.40;;;34.60;47.70;;;;;;5039651;28;20225;-77
2022/08/07 12:11:58;;;;;;;5.57;3.97;;;34.60;47.80;;;;;;5045008;28;20274;-77
2022/08/07 12:14:46;;;;;;;7.22;3.30;;;34.70;47.90;;;;;;5042337;28;20190;-78
2022/08/07 12:17:37;;;;;;;6.78;3.53;;;34.80;48.10;;;;;;5048123;28;20187;-76
2022/08/07 12:20:12;;;;;;;6.93;3.65;;;34.90;47.90;;;;;;5034602;28;20202;-78
2022/08/07 12:23:16;;;;;;;5.93;3.70;;;34.90;48.50;;;;;;5046403;28;20217;-77
2022/08/07 12:25:55;;;;;;;5.43;3.60;;;35.00;47.90;;;;;;5044269;28;20664;-77
2022/08/07 12:28:52;;;;;;;6.60;3.63;;;35.00;47.90;;;;;;5046834;28;20191;-76
2022/08/07 12:31:28;;;;;;;6.38;3.40;;;35.10;48.20;;;;;;5045511;28;20210;-74
2022/08/07 12:34:19;;;;;;;7.18;3.90;;;35.10;47.60;;;;;;5045353;28;20205;-78
2022/08/07 12:36:53;;;;;;;5.35;3.83;;;35.00;47.50;;;;;;5042577;28;20191;-79
2022/08/07 12:39:24;;;;;;;5.63;3.40;;;35.10;47.60;;;;;;5042281;28;20233;-78
2022/08/07 12:42:15;;;;;;;4.65;3.58;;;35.00;47.30;;;;;;5042606;28;20193;-77
2022/08/07 12:44:56;;;;;;;7.57;3.88;;;35.00;47.10;;;;;;5040490;28;20661;-78
2022/08/07 12:47:32;;;;;;;5.78;3.42;;;34.90;46.30;;;;;;5042931;28;20199;-78
2022/08/07 12:50:15;;;;;;;6.15;3.70;;;35.00;46.50;;;;;;5042342;28;20213;-78
2022/08/07 12:53:11;;;;;;;4.68;3.15;;;35.00;46.60;;;;;;5035604;28;20198;-78
2022/08/07 12:55:51;;;;;;;5.47;3.75;;;35.10;46.80;;;;;;5041977;28;20195;-78
2022/08/07 12:58:37;;;;;;;6.15;3.40;;;35.00;46.30;;;;;;5040487;28;20282;-79
2022/08/07 13:01:17;;;;;;;6.80;3.70;;;35.10;46.20;;;;;;5036718;28;20193;-79
2022/08/07 13:03:58;;;;;;;7.55;3.08;;;35.10;45.90;;;;;;5043084;28;20236;-78
2022/08/07 13:06:46;;;;;;;7.20;3.97;;;35.20;46.20;;;;;;5045919;28;20826;-79
2022/08/07 13:10:00;;;;;;;5.43;4.05;;;35.10;45.60;;;;;;5042385;28;20219;-78
2022/08/07 13:13:08;;;;;;;7.50;3.92;;;35.20;45.90;;;;;;5031471;28;20983;-76
2022/08/07 13:15:49;;;;;;;6.03;3.75;;;35.20;46.00;;;;;;5037493;28;20209;-78
2022/08/07 13:18:30;;;;;;;5.53;3.83;;;35.10;45.50;;;;;;5042025;28;20178;-77
2022/08/07 13:21:07;;;;;;;8.75;4.07;;;35.10;45.30;;;;;;5041654;28;20441;-76
2022/08/07 13:23:49;;;;;;;6.18;4.20;;;35.10;45.40;;;;;;5051379;28;20719;-78
2022/08/07 13:26:39;;;;;;;6.30;4.63;;;35.10;45.40;;;;;;5042614;28;20240;-78
2022/08/07 13:29:19;;;;;;;5.18;4.07;;;35.10;45.50;;;;;;5045689;28;20635;-77
2022/08/07 13:31:53;;;;;;;7.50;4.25;;;35.10;45.60;;;;;;5039446;28;20226;-76
2022/08/07 13:34:41;;;;;;;7.78;4.07;;;35.10;45.20;;;;;;5048457;28;20187;-75
2022/08/07 13:37:19;;;;;;;11.35;4.38;;;35.10;44.80;;;;;;5046695;28;20179;-77
2022/08/07 13:40:02;;;;;;;5.82;3.35;;;35.10;45.10;;;;;;5043788;28;20265;-77
2022/08/07 13:42:52;;;;;;;6.32;3.60;;;35.10;44.90;;;;;;5038724;28;20202;-76
2022/08/07 13:45:22;;;;;;;6.05;3.70;;;35.20;45.00;;;;;;5042906;28;20183;-74
2022/08/07 13:48:13;;;;;;;6.97;3.97;;;35.20;45.70;;;;;;5046216;28;20201;-75
2022/08/07 13:51:02;;;;;;;6.60;4.20;;;35.30;45.00;;;;;;5043046;28;20218;-76
2022/08/07 13:53:56;;;;;;;7.03;4.20;;;35.30;45.00;;;;;;5045809;28;20203;-76
2022/08/07 13:56:29;;;;;;;8.80;4.13;;;35.30;44.90;;;;;;5047242;28;20198;-76
2022/08/07 13:59:11;;;;;;;5.85;4.35;;;35.30;44.40;;;;;;5051501;28;20206;-75
2022/08/07 14:01:47;;;;;;;8.23;4.15;;;35.30;44.70;;;;;;5043382;28;20191;-75
2022/08/07 14:04:44;;;;;;;9.00;4.80;;;35.30;44.30;;;;;;5044435;28;20653;-76
2022/08/07 14:07:20;;;;;;;8.27;3.65;;;35.20;44.60;;;;;;5040620;28;20194;-77
2022/08/07 14:09:53;;;;;;;8.52;4.57;;;35.20;44.70;;;;;;5046599;28;20230;-75